Temperanceville, Virginia
Current Conditions -  °F | °C
As of 10:54 AM on Friday 24 Oct 2014 (Local Time) from KWAL Reporting Station
Broken Clouds Broken Clouds  
Wind Chill: 61°   Ceiling: 25000
Heat Index: 61°   Visibility: 10mi
Dew Point: 47°   Wind: 14mph
Humidity: 60%   Direction: 340°NNW
Pressure: 29.92"   Gusts: NA
Location:  37.89°N, 75.55°W
Report Text: KWAL 241454Z 34012KT 10SM FEW040 FEW150 BKN250 16/08 A2992 RMK AO2 SLP130 T01610083 50001
Loading
Personal Weather Stations






























Interactive Weather Map
Tropical Storm Tracking
New forecast layout! Learn more

10-Day Weather Forecast

Advertisements
Track Severe Weather on mobile